Time;durP1;ratioP1;P1;durP2;ratioP2;P2;SDS_P1;SDS_P2;PMS_P1;PMS_P2;Temp;Humidity;BMP_temperature;BMP_pressure;BME280_temperature;BME280_humidity;BME280_pressure;Samples;Min_cycle;Max_cycle;Signal;HPM_P1;HPM_P2
2023/10/25 00:01:42;;;;;;;;;;;;;;;6.62;59.64;94347.81;4961792;28;19926;-73
2023/10/25 00:04:07;;;;;;;;;;;;;;;6.68;60.84;94346.28;4963149;28;20553;-72
2023/10/25 00:06:33;;;;;;;;;;;;;;;6.67;61.10;94349.94;4962001;28;20342;-72
2023/10/25 00:08:58;;;;;;;;;;;;;;;6.71;59.47;94349.38;4964659;28;20025;-74
2023/10/25 00:11:23;;;;;;;;;;;;;;;6.74;59.43;94350.84;4966127;28;19937;-73
2023/10/25 00:13:49;;;;;;;;;;;;;;;6.83;61.27;94346.28;4966967;28;19928;-72
2023/10/25 00:16:15;;;;;;;;;;;;;;;6.88;61.51;94349.16;4966689;28;19921;-74
2023/10/25 00:18:40;;;;;;;;;;;;;;;6.77;58.05;94345.97;4963753;28;19949;-74
2023/10/25 00:21:05;;;;;;;;;;;;;;;6.85;60.48;94347.72;4962037;28;19922;-72
2023/10/25 00:23:30;;;;;;;;;;;;;;;6.97;56.11;94353.34;4971105;28;20524;-72
2023/10/25 00:25:56;;;;;;;;;;;;;;;6.67;60.51;94348.13;4961785;28;20299;-72
2023/10/25 00:28:21;;;;;;;;;;;;;;;5.80;60.92;94350.31;4961275;28;19949;-71
2023/10/25 00:30:46;;;;;;;;;;;;;;;6.03;60.24;94357.38;4965792;28;19918;-72
2023/10/25 00:33:11;;;;;;;;;;;;;;;6.58;59.89;94362.44;4972155;28;19969;-72
2023/10/25 00:35:37;;;;;;;;;;;;;;;6.25;60.75;94355.66;4962317;28;20446;-72
2023/10/25 00:38:02;;;;;;;;;;;;;;;6.96;57.65;94358.81;4961246;28;19922;-72
2023/10/25 00:40:27;;;;;;;;;;;;;;;6.81;57.12;94359.69;4960952;28;19925;-72
2023/10/25 00:42:52;;;;;;;;;;;;;;;6.98;60.04;94355.00;4962850;28;19925;-71
2023/10/25 00:45:18;;;;;;;;;;;;;;;7.22;60.72;94352.16;4960710;28;19921;-72
2023/10/25 00:47:43;;;;;;;;;;;;;;;7.43;60.53;94343.41;4948164;28;19926;-72
2023/10/25 00:50:09;;;;;;;;;;;;;;;7.57;60.53;94338.22;4964259;28;20028;-72
2023/10/25 00:52:34;;;;;;;;;;;;;;;7.69;59.60;94342.03;4965892;28;19917;-72
2023/10/25 00:54:59;;;;;;;;;;;;;;;7.81;58.92;94346.81;4963756;28;19917;-72
2023/10/25 00:57:25;;;;;;;;;;;;;;;7.87;57.96;94335.44;4965876;28;20483;-72
2023/10/25 00:59:50;;;;;;;;;;;;;;;7.93;59.53;94337.34;4963492;28;20012;-71
2023/10/25 01:02:15;;;;;;;;;;;;;;;7.97;58.75;94340.41;4964091;28;19921;-72
2023/10/25 01:04:41;;;;;;;;;;;;;;;8.05;59.01;94342.91;4960433;28;20427;-73
2023/10/25 01:07:06;;;;;;;;;;;;;;;8.12;58.43;94345.59;4965040;28;19913;-71
2023/10/25 01:09:31;;;;;;;;;;;;;;;8.11;58.04;94341.31;4966075;28;20379;-73
2023/10/25 01:11:57;;;;;;;;;;;;;;;8.15;57.76;94340.75;4948436;28;19918;-73
2023/10/25 01:14:25;;;;;;;;;;;;;;;8.16;56.94;94337.09;4969619;28;19920;-73
2023/10/25 01:16:50;;;;;;;;;;;;;;;8.19;57.88;94341.16;4975165;28;20402;-72
2023/10/25 01:19:16;;;;;;;;;;;;;;;8.22;57.63;94345.25;4961278;28;19980;-72
2023/10/25 01:21:42;;;;;;;;;;;;;;;8.27;57.85;94338.38;4971232;28;20290;-72
2023/10/25 01:24:07;;;;;;;;;;;;;;;8.29;57.58;94335.53;4971323;28;19921;-71
2023/10/25 01:26:33;;;;;;;;;;;;;;;8.32;57.40;94335.13;4970833;28;19914;-71
2023/10/25 01:28:58;;;;;;;;;;;;;;;8.36;57.91;94328.44;4957396;28;19974;-72
2023/10/25 01:31:23;;;;;;;;;;;;;;;8.40;57.65;94332.31;4964184;28;20068;-72
2023/10/25 01:33:51;;;;;;;;;;;;;;;8.46;57.22;94325.41;4965488;28;19926;-74
2023/10/25 01:36:16;;;;;;;;;;;;;;;8.50;57.12;94326.66;4967299;28;20605;-74
2023/10/25 01:38:41;;;;;;;;;;;;;;;8.52;57.28;94329.13;4966874;28;20013;-73
2023/10/25 01:41:13;;;;;;;;;;;;;;;8.47;56.30;94336.84;4967491;28;19964;-74
2023/10/25 01:43:39;;;;;;;;;;;;;;;8.46;54.72;94330.72;4965829;28;20045;-75
2023/10/25 01:46:04;;;;;;;;;;;;;;;8.46;56.91;94336.03;4970462;28;22159;-75
2023/10/25 01:48:29;;;;;;;;;;;;;;;8.46;55.25;94332.56;4969303;28;19922;-74
2023/10/25 01:50:54;;;;;;;;;;;;;;;8.41;54.84;94322.53;4965166;28;19980;-75
2023/10/25 01:53:20;;;;;;;;;;;;;;;8.40;57.04;94319.06;4964444;28;19918;-74
2023/10/25 01:55:46;;;;;;;;;;;;;;;8.37;55.95;94314.13;4963133;28;19949;-75
2023/10/25 01:58:11;;;;;;;;;;;;;;;8.40;55.96;94321.72;4961535;28;19956;-73
2023/10/25 02:00:37;;;;;;;;;;;;;;;8.37;57.12;94316.00;4970040;28;19998;-74
2023/10/25 02:03:03;;;;;;;;;;;;;;;8.32;54.61;94302.50;4965023;28;20330;-74
2023/10/25 02:05:28;;;;;;;;;;;;;;;8.29;57.06;94296.56;4964565;28;19993;-74
2023/10/25 02:07:54;;;;;;;;;;;;;;;8.35;57.04;94291.50;4965609;28;20407;-75
2023/10/25 02:10:20;;;;;;;;;;;;;;;8.29;57.34;94290.44;4964886;28;19918;-75
2023/10/25 02:12:45;;;;;;;;;;;;;;;8.39;57.18;94287.44;4969801;28;19918;-73
2023/10/25 02:15:10;;;;;;;;;;;;;;;8.45;56.43;94286.66;4964560;28;20425;-75
2023/10/25 02:17:35;;;;;;;;;;;;;;;8.28;56.69;94280.84;4966366;28;19969;-76
2023/10/25 02:20:01;;;;;;;;;;;;;;;8.27;56.68;94281.88;4963547;28;19956;-74
2023/10/25 02:22:26;;;;;;;;;;;;;;;8.21;56.15;94280.81;4962864;28;20592;-74
2023/10/25 02:24:53;;;;;;;;;;;;;;;8.19;56.96;94274.88;4964245;28;19918;-73
2023/10/25 02:27:18;;;;;;;;;;;;;;;8.00;54.86;94285.22;4963599;28;20300;-76
2023/10/25 02:29:43;;;;;;;;;;;;;;;8.19;56.13;94272.25;4958333;28;19929;-73
2023/10/25 02:32:10;;;;;;;;;;;;;;;8.10;57.02;94274.25;4963360;28;20339;-74
2023/10/25 02:34:36;;;;;;;;;;;;;;;8.16;56.96;94275.31;4963743;28;20499;-74
2023/10/25 02:37:02;;;;;;;;;;;;;;;8.18;54.38;94271.44;4963046;28;20347;-73
2023/10/25 02:39:27;;;;;;;;;;;;;;;7.68;56.83;94268.03;4962808;28;19913;-75
2023/10/25 02:41:52;;;;;;;;;;;;;;;7.88;57.25;94265.53;4963321;28;19966;-74
2023/10/25 02:44:18;;;;;;;;;;;;;;;8.00;57.60;94260.53;4962827;28;19977;-71
2023/10/25 02:46:43;;;;;;;;;;;;;;;8.07;56.97;94261.38;4965569;28;20291;-72
2023/10/25 02:49:08;;;;;;;;;;;;;;;8.11;57.00;94254.69;4966408;28;20018;-71
2023/10/25 02:51:34;;;;;;;;;;;;;;;8.14;56.57;94261.41;4964061;28;20028;-72
2023/10/25 02:53:59;;;;;;;;;;;;;;;7.87;53.25;94251.50;4962875;28;19996;-72
2023/10/25 02:56:24;;;;;;;;;;;;;;;7.89;56.99;94249.44;4958778;28;19918;-71
2023/10/25 02:58:50;;;;;;;;;;;;;;;8.03;57.29;94244.25;4958000;28;19952;-71
2023/10/25 03:01:19;;;;;;;;;;;;;;;8.11;57.08;94243.25;4965947;28;19960;-70
2023/10/25 03:03:44;;;;;;;;;;;;;;;8.17;56.94;94253.06;4961899;28;19918;-72
2023/10/25 03:06:10;;;;;;;;;;;;;;;8.23;56.73;94249.63;4962730;28;19922;-72
2023/10/25 03:08:35;;;;;;;;;;;;;;;8.27;56.48;94244.75;4962207;28;19921;-71
2023/10/25 03:11:00;;;;;;;;;;;;;;;8.29;56.61;94240.06;4962623;28;19918;-71
2023/10/25 03:13:25;;;;;;;;;;;;;;;8.30;56.66;94236.41;4961736;28;19914;-72
2023/10/25 03:15:51;;;;;;;;;;;;;;;8.29;56.45;94237.41;4961772;28;19918;-71
2023/10/25 03:18:16;;;;;;;;;;;;;;;8.34;56.42;94239.47;4961891;28;20035;-72
2023/10/25 03:20:41;;;;;;;;;;;;;;;8.36;56.30;94235.59;4959607;28;19922;-72
2023/10/25 03:23:06;;;;;;;;;;;;;;;8.29;56.61;94235.59;4959184;28;19972;-72
2023/10/25 03:25:32;;;;;;;;;;;;;;;8.23;57.10;94225.75;4961456;28;20009;-71
2023/10/25 03:27:57;;;;;;;;;;;;;;;8.23;56.73;94217.81;4962967;28;19922;-72
2023/10/25 03:30:22;;;;;;;;;;;;;;;8.23;56.64;94224.97;4964967;28;20289;-73
2023/10/25 03:32:47;;;;;;;;;;;;;;;8.25;56.71;94229.03;4964242;28;20012;-72
2023/10/25 03:35:13;;;;;;;;;;;;;;;8.21;56.26;94222.50;4969286;28;19925;-70
2023/10/25 03:37:41;;;;;;;;;;;;;;;8.17;56.80;94221.25;4961257;28;19926;-72
2023/10/25 03:40:07;;;;;;;;;;;;;;;8.19;57.09;94232.47;4962029;28;20008;-71
2023/10/25 03:42:32;;;;;;;;;;;;;;;8.17;57.03;94221.25;4962833;28;19914;-73
2023/10/25 03:44:57;;;;;;;;;;;;;;;8.23;56.46;94220.44;4961544;28;19921;-73
2023/10/25 03:47:23;;;;;;;;;;;;;;;8.21;57.07;94209.25;4966574;28;19917;-72
2023/10/25 03:49:51;;;;;;;;;;;;;;;8.23;57.36;94211.69;4964439;28;19914;-73
2023/10/25 03:52:17;;;;;;;;;;;;;;;8.22;56.80;94205.56;4963372;28;19991;-71
2023/10/25 03:54:42;;;;;;;;;;;;;;;8.22;57.04;94205.56;4963834;28;20446;-73
2023/10/25 03:57:08;;;;;;;;;;;;;;;8.15;55.63;94202.91;4961167;28;20028;-72
2023/10/25 03:59:33;;;;;;;;;;;;;;;8.16;57.29;94196.56;4960435;28;19963;-73
2023/10/25 04:01:59;;;;;;;;;;;;;;;8.10;57.64;94200.03;4965496;28;19937;-72
2023/10/25 04:04:24;;;;;;;;;;;;;;;8.01;57.30;94191.41;4964811;28;19948;-72
2023/10/25 04:06:49;;;;;;;;;;;;;;;7.91;58.04;94185.66;4962094;28;20017;-73
2023/10/25 04:09:14;;;;;;;;;;;;;;;7.98;57.02;94181.22;4968442;28;20454;-72
2023/10/25 04:11:39;;;;;;;;;;;;;;;7.98;57.88;94177.72;4965453;28;20508;-73
2023/10/25 04:14:05;;;;;;;;;;;;;;;7.87;57.34;94165.88;4969929;28;19922;-72
2023/10/25 04:16:30;;;;;;;;;;;;;;;7.84;58.11;94163.59;4965859;28;19926;-71
2023/10/25 04:18:55;;;;;;;;;;;;;;;7.76;57.43;94161.91;4968219;28;19930;-71
2023/10/25 04:21:20;;;;;;;;;;;;;;;7.65;58.62;94169.38;4963875;28;19964;-72
2023/10/25 04:23:46;;;;;;;;;;;;;;;7.52;59.38;94164.81;4969876;28;19918;-72
2023/10/25 04:26:12;;;;;;;;;;;;;;;7.46;58.60;94160.31;4961688;28;20492;-72
2023/10/25 04:28:38;;;;;;;;;;;;;;;7.36;58.82;94168.63;4960844;28;19926;-71
2023/10/25 04:31:03;;;;;;;;;;;;;;;7.32;58.61;94159.41;4961326;28;19914;-72
2023/10/25 04:33:29;;;;;;;;;;;;;;;7.23;59.39;94157.91;4960975;28;19964;-73
2023/10/25 04:35:55;;;;;;;;;;;;;;;7.15;57.90;94157.03;4961144;28;19929;-72
2023/10/25 04:38:21;;;;;;;;;;;;;;;7.07;60.02;94151.91;4960859;28;19918;-71
2023/10/25 04:40:46;;;;;;;;;;;;;;;6.98;58.79;94150.41;4960955;28;19918;-72
2023/10/25 04:43:11;;;;;;;;;;;;;;;6.96;60.39;94145.31;4962333;28;20033;-72
2023/10/25 04:45:36;;;;;;;;;;;;;;;6.84;60.69;94150.28;4969786;28;20007;-72
2023/10/25 04:48:02;;;;;;;;;;;;;;;6.79;60.05;94149.22;4964698;28;19922;-72
2023/10/25 04:50:32;;;;;;;;;;;;;;;6.72;60.21;94150.00;4966711;28;19925;-72
2023/10/25 04:52:58;;;;;;;;;;;;;;;6.46;60.17;94151.34;4964808;28;19922;-71
2023/10/25 04:55:26;;;;;;;;;;;;;;;6.50;59.84;94149.19;4963532;28;20013;-72
2023/10/25 04:57:51;;;;;;;;;;;;;;;6.39;60.70;94147.81;4959268;28;20439;-73
2023/10/25 05:00:16;;;;;;;;;;;;;;;6.54;60.33;94149.63;4962011;28;19914;-72
2023/10/25 05:02:41;;;;;;;;;;;;;;;6.42;61.34;94147.44;4970318;28;20633;-72
2023/10/25 05:05:07;;;;;;;;;;;;;;;6.56;58.87;94147.63;4964963;28;19980;-74
2023/10/25 05:07:33;;;;;;;;;;;;;;;6.49;62.65;94147.53;4952463;28;20371;-76
2023/10/25 05:09:58;;;;;;;;;;;;;;;6.72;61.99;94142.06;4964541;28;19906;-74
2023/10/25 05:12:24;;;;;;;;;;;;;;;6.75;60.78;94148.78;4964181;28;19918;-74
2023/10/25 05:14:50;;;;;;;;;;;;;;;6.69;62.55;94137.16;4964868;28;20415;-75
2023/10/25 05:17:15;;;;;;;;;;;;;;;6.72;62.76;94131.47;4965275;28;19925;-74
2023/10/25 05:19:40;;;;;;;;;;;;;;;6.85;60.75;94129.94;4963374;28;20435;-73
2023/10/25 05:22:09;;;;;;;;;;;;;;;7.05;62.08;94124.00;4959537;28;19918;-75
2023/10/25 05:24:34;;;;;;;;;;;;;;;7.15;61.57;94122.63;4946567;28;20014;-76
2023/10/25 05:27:00;;;;;;;;;;;;;;;7.14;61.29;94122.81;4969022;28;19926;-75
2023/10/25 05:29:25;;;;;;;;;;;;;;;7.12;58.83;94124.88;4963004;28;19950;-75
2023/10/25 05:31:50;;;;;;;;;;;;;;;7.13;60.42;94131.78;4964647;28;19918;-74
2023/10/25 05:34:16;;;;;;;;;;;;;;;7.15;60.61;94143.00;4964788;28;19914;-75
2023/10/25 05:36:41;;;;;;;;;;;;;;;7.11;61.15;94133.81;4965198;28;19921;-73
2023/10/25 05:39:06;;;;;;;;;;;;;;;7.24;59.89;94128.59;4964092;28;19953;-76
2023/10/25 05:41:35;;;;;;;;;;;;;;;7.12;60.25;94120.41;4965426;28;19921;-73
2023/10/25 05:44:01;;;;;;;;;;;;;;;7.18;61.01;94120.63;4946435;28;19914;-75
2023/10/25 05:46:27;;;;;;;;;;;;;;;7.17;61.03;94122.44;4964507;28;19920;-75
2023/10/25 05:48:54;;;;;;;;;;;;;;;7.16;61.56;94120.81;4964005;28;20327;-77
2023/10/25 05:51:19;;;;;;;;;;;;;;;7.24;60.29;94131.25;4963472;28;19928;-76
2023/10/25 05:53:46;;;;;;;;;;;;;;;7.25;59.77;94116.19;4963510;28;19918;-76
2023/10/25 05:56:11;;;;;;;;;;;;;;;7.23;58.54;94113.75;4944333;28;19922;-74
2023/10/25 05:58:37;;;;;;;;;;;;;;;7.11;59.24;94110.00;4957626;28;20557;-75
2023/10/25 06:01:03;;;;;;;;;;;;;;;7.27;61.52;94117.63;4963838;28;19949;-77
2023/10/25 06:03:28;;;;;;;;;;;;;;;7.31;60.64;94122.53;4963423;28;19945;-77
2023/10/25 06:05:54;;;;;;;;;;;;;;;7.15;59.49;94116.53;4946242;28;19957;-74
2023/10/25 06:08:19;;;;;;;;;;;;;;;7.28;61.17;94119.25;4945599;28;19918;-75
2023/10/25 06:10:44;;;;;;;;;;;;;;;7.27;60.14;94109.69;4963153;28;19949;-75
2023/10/25 06:13:10;;;;;;;;;;;;;;;7.43;60.14;94105.09;4962843;28;19922;-74
2023/10/25 06:15:36;;;;;;;;;;;;;;;7.47;59.45;94109.00;4963154;28;20499;-75
2023/10/25 06:18:01;;;;;;;;;;;;;;;7.43;60.92;94107.75;4964241;28;19942;-76
2023/10/25 06:20:26;;;;;;;;;;;;;;;7.41;60.25;94107.09;4961660;28;20351;-74
2023/10/25 06:22:52;;;;;;;;;;;;;;;7.53;59.82;94113.50;4963471;28;20288;-74
2023/10/25 06:25:17;;;;;;;;;;;;;;;7.60;59.70;94102.13;4963099;28;19925;-75
2023/10/25 06:27:42;;;;;;;;;;;;;;;7.41;59.35;94107.09;4962264;28;19981;-74
2023/10/25 06:30:08;;;;;;;;;;;;;;;7.57;58.95;94094.56;4962208;28;19914;-74
2023/10/25 06:32:33;;;;;;;;;;;;;;;7.61;59.60;94096.63;4962974;28;19914;-76
2023/10/25 06:34:58;;;;;;;;;;;;;;;7.59;59.08;94093.38;4964024;28;19968;-75
2023/10/25 06:37:24;;;;;;;;;;;;;;;7.57;58.44;94100.69;4962906;28;19918;-75
2023/10/25 06:39:49;;;;;;;;;;;;;;;7.67;58.83;94095.03;4964398;28;19937;-74
2023/10/25 06:42:15;;;;;;;;;;;;;;;7.73;57.97;94096.91;4962889;28;19914;-74
2023/10/25 06:44:41;;;;;;;;;;;;;;;7.74;57.50;94089.75;4961480;28;20350;-74
2023/10/25 06:47:09;;;;;;;;;;;;;;;7.57;58.53;94086.63;4963328;28;20451;-74
2023/10/25 06:49:34;;;;;;;;;;;;;;;7.60;57.21;94073.81;4965358;28;19929;-77
2023/10/25 06:52:00;;;;;;;;;;;;;;;7.51;54.06;94080.28;4961574;28;19922;-75
2023/10/25 06:54:25;;;;;;;;;;;;;;;7.66;58.85;94069.56;4962776;28;19917;-74
2023/10/25 06:56:50;;;;;;;;;;;;;;;7.66;58.90;94065.06;4963702;28;19926;-75
2023/10/25 06:59:16;;;;;;;;;;;;;;;7.63;57.54;94052.25;4967994;28;20386;-76
2023/10/25 07:01:43;;;;;;;;;;;;;;;7.78;58.74;94052.09;4965018;28;20468;-74
2023/10/25 07:04:09;;;;;;;;;;;;;;;7.89;59.51;94050.69;4961456;28;19918;-74
2023/10/25 07:06:34;;;;;;;;;;;;;;;7.96;58.88;94048.06;4948767;28;20508;-76
2023/10/25 07:08:59;;;;;;;;;;;;;;;7.72;59.01;94050.22;4962801;28;19921;-74
2023/10/25 07:11:25;;;;;;;;;;;;;;;7.86;58.65;94050.31;4965673;28;19918;-77
2023/10/25 07:13:50;;;;;;;;;;;;;;;7.79;58.30;94039.69;4963972;28;19969;-75
2023/10/25 07:16:15;;;;;;;;;;;;;;;7.95;58.88;94035.84;4960534;28;20021;-74
2023/10/25 07:18:41;;;;;;;;;;;;;;;7.91;59.47;94029.31;4960535;28;19981;-75
2023/10/25 07:21:06;;;;;;;;;;;;;;;7.79;58.79;94024.59;4961966;28;19922;-74
2023/10/25 07:23:32;;;;;;;;;;;;;;;8.04;57.42;94026.72;4961318;28;20005;-75
2023/10/25 07:25:57;;;;;;;;;;;;;;;7.98;58.45;94018.72;4962225;28;19968;-72
2023/10/25 07:28:29;;;;;;;;;;;;;;;8.16;58.52;94016.31;5082717;27;19920;-72
2023/10/25 07:30:55;;;;;;;;;;;;;;;8.37;57.75;94008.38;5055754;28;20439;-72
2023/10/25 07:33:21;;;;;;;;;;;;;;;8.44;57.23;93993.28;5056270;28;20003;-71
2023/10/25 07:35:46;;;;;;;;;;;;;;;8.59;56.82;93990.41;5055510;28;20313;-73
2023/10/25 07:38:11;;;;;;;;;;;;;;;8.76;56.20;93982.00;5057167;28;19928;-72
2023/10/25 07:40:38;;;;;;;;;;;;;;;8.77;55.35;93978.38;5056429;28;19927;-73
2023/10/25 07:43:03;;;;;;;;;;;;;;;8.70;55.42;93967.75;5056102;28;19928;-73
2023/10/25 07:45:29;;;;;;;;;;;;;;;8.81;55.11;93975.06;5056866;28;20423;-71
2023/10/25 07:47:55;;;;;;;;;;;;;;;8.75;55.13;93975.91;5056861;28;19929;-71
2023/10/25 07:50:20;;;;;;;;;;;;;;;8.69;55.62;93976.72;5056579;28;19931;-71
2023/10/25 07:52:45;;;;;;;;;;;;;;;8.79;55.19;93965.69;5056390;28;19921;-72
2023/10/25 07:55:10;;;;;;;;;;;;;;;8.65;55.37;93963.06;5055298;28;20177;-72
2023/10/25 07:57:36;;;;;;;;;;;;;;;8.89;54.89;93959.94;5069899;28;19924;-73
2023/10/25 08:00:01;;;;;;;;;;;;;;;8.75;54.57;93945.91;5055624;28;19925;-72
2023/10/25 08:02:26;;;;;;;;;;;;;;;8.99;52.94;93949.75;5058409;28;19924;-73
2023/10/25 08:04:51;;;;;;;;;;;;;;;9.09;54.00;93949.31;5055718;28;19927;-72
2023/10/25 08:07:17;;;;;;;;;;;;;;;9.17;53.75;93943.78;5055257;28;20396;-72
2023/10/25 08:09:44;;;;;;;;;;;;;;;9.29;53.59;93937.81;5055843;28;19920;-70
2023/10/25 08:12:10;;;;;;;;;;;;;;;9.31;53.13;93944.53;5062541;28;19966;-71
2023/10/25 08:14:35;;;;;;;;;;;;;;;9.43;53.06;93934.06;5056035;28;19956;-72
2023/10/25 08:17:01;;;;;;;;;;;;;;;9.80;51.81;93932.63;5056010;28;20565;-71
2023/10/25 08:19:26;;;;;;;;;;;;;;;9.73;51.91;93927.34;5054568;28;19929;-70
2023/10/25 08:21:51;;;;;;;;;;;;;;;10.00;50.35;93943.13;5055407;28;20035;-72
2023/10/25 08:24:16;;;;;;;;;;;;;;;10.09;50.52;93949.00;5053301;28;20496;-72
2023/10/25 08:26:42;;;;;;;;;;;;;;;9.87;51.35;93941.38;5054421;28;19924;-72
2023/10/25 08:29:07;;;;;;;;;;;;;;;9.79;51.80;93955.72;5053892;28;19923;-72
2023/10/25 08:31:33;;;;;;;;;;;;;;;9.66;51.28;93942.53;5055354;28;20178;-71
2023/10/25 08:33:59;;;;;;;;;;;;;;;9.79;51.19;93939.78;5055426;28;20022;-72
2023/10/25 08:36:24;;;;;;;;;;;;;;;9.73;51.47;93943.31;5054738;28;19947;-72
2023/10/25 08:38:49;;;;;;;;;;;;;;;9.79;51.38;93937.13;5048523;28;19925;-72
2023/10/25 08:41:17;;;;;;;;;;;;;;;9.64;51.78;93941.91;5042743;28;19916;-74
2023/10/25 08:43:43;;;;;;;;;;;;;;;9.86;51.22;93931.75;5037041;28;19921;-73
2023/10/25 08:46:08;;;;;;;;;;;;;;;10.00;51.05;93939.66;5040072;28;19912;-73
2023/10/25 08:48:34;;;;;;;;;;;;;;;9.83;51.15;93943.63;5057445;28;19933;-72
2023/10/25 08:51:03;;;;;;;;;;;;;;;10.09;50.16;93939.19;5042536;28;19966;-73
2023/10/25 08:53:28;;;;;;;;;;;;;;;10.18;50.30;93937.09;5041857;28;20532;-74
2023/10/25 08:55:54;;;;;;;;;;;;;;;10.02;50.43;93918.97;5039973;28;19962;-72
2023/10/25 08:58:19;;;;;;;;;;;;;;;9.80;51.22;93911.34;5054105;28;20284;-72
2023/10/25 09:00:45;;;;;;;;;;;;;;;10.16;50.33;93893.13;5046404;28;20031;-74
2023/10/25 09:03:29;;;;;;;;;;;;;;;9.93;50.54;93882.00;5042566;28;19951;-72
2023/10/25 09:05:54;;;;;;;;;;;;;;;10.05;50.79;93863.56;5036854;28;19917;-72
2023/10/25 09:08:19;;;;;;;;;;;;;;;10.08;50.41;93849.00;5041892;28;19979;-72
2023/10/25 09:10:45;;;;;;;;;;;;;;;9.72;51.01;93852.13;5057760;28;20046;-73
2023/10/25 09:13:13;;;;;;;;;;;;;;;10.12;50.19;93852.03;5057203;28;19920;-73
2023/10/25 09:15:39;;;;;;;;;;;;;;;9.98;50.51;93854.78;5040232;28;19931;-73
2023/10/25 09:18:04;;;;;;;;;;;;;;;10.01;49.58;93858.84;5040805;28;19995;-73
2023/10/25 09:20:29;;;;;;;;;;;;;;;9.91;51.01;93862.81;5042038;28;19978;-72
2023/10/25 09:23:15;;;;;;;;;;;;;;;9.89;50.96;93856.09;5033840;28;20395;-72
2023/10/25 09:25:40;;;;;;;;;;;;;;;9.95;50.27;93855.22;5035571;28;19974;-74
2023/10/25 09:28:13;;;;;;;;;;;;;;;10.01;50.25;93845.56;5040957;28;19933;-73
2023/10/25 09:30:39;;;;;;;;;;;;;;;9.84;50.25;93838.97;5041852;28;20412;-73
2023/10/25 09:33:04;;;;;;;;;;;;;;;10.06;49.73;93851.06;5041586;28;19921;-75
2023/10/25 09:35:29;;;;;;;;;;;;;;;9.67;50.90;93851.16;5041085;28;20218;-72
2023/10/25 09:37:54;;;;;;;;;;;;;;;9.96;50.01;93844.38;5040489;28;20540;-73
2023/10/25 09:40:20;;;;;;;;;;;;;;;9.76;51.23;93839.22;5036262;28;20975;-74
2023/10/25 09:42:49;;;;;;;;;;;;;;;9.43;51.67;93829.66;5040738;28;19920;-73
2023/10/25 09:45:15;;;;;;;;;;;;;;;9.78;51.05;93836.34;5034067;28;19974;-75
2023/10/25 09:47:40;;;;;;;;;;;;;;;9.85;50.35;93823.81;5041885;28;19962;-73
2023/10/25 09:50:06;;;;;;;;;;;;;;;9.59;50.00;93823.81;5059935;28;20376;-73
2023/10/25 09:52:33;;;;;;;;;;;;;;;9.37;51.02;93812.72;5043553;28;20176;-75
2023/10/25 09:55:02;;;;;;;;;;;;;;;9.68;51.31;93799.63;5043685;28;20011;-74
2023/10/25 09:57:29;;;;;;;;;;;;;;;9.79;50.37;93801.56;5062936;28;20051;-74
2023/10/25 09:59:56;;;;;;;;;;;;;;;9.53;51.44;93792.81;5063179;28;19917;-73
2023/10/25 10:02:33;;;;;;;;;;;;;;;9.35;51.82;93784.75;5049850;28;19925;-80
2023/10/25 10:04:58;;;;;;;;;;;;;;;9.19;52.35;93782.41;5055147;28;19944;-80
2023/10/25 10:07:23;;;;;;;;;;;;;;;9.50;52.02;93771.97;5054659;28;20043;-80
2023/10/25 10:09:49;;;;;;;;;;;;;;;9.49;51.41;93781.00;5053175;28;19940;-80
2023/10/25 10:12:14;;;;;;;;;;;;;;;9.50;52.02;93773.81;5054429;28;19920;-81
2023/10/25 10:14:39;;;;;;;;;;;;;;;9.21;52.68;93774.22;5049948;28;20008;-79
2023/10/25 10:17:05;;;;;;;;;;;;;;;9.12;52.81;93770.22;5056210;28;19909;-79
2023/10/25 10:19:31;;;;;;;;;;;;;;;9.29;52.69;93765.19;5266677;22;19935;-80
2023/10/25 10:22:06;;;;;;;;;;;;;;;9.06;53.40;93762.06;5035095;28;19924;-81
2023/10/25 10:24:41;;;;;;;;;;;;;;;9.24;52.98;93754.41;5055251;28;19917;-80
2023/10/25 10:27:07;;;;;;;;;;;;;;;9.61;51.91;93751.03;5054926;28;19935;-81
2023/10/25 10:29:32;;;;;;;;;;;;;;;9.20;52.36;93744.22;5035969;28;19952;-68
2023/10/25 10:32:04;;;;;;;;;;;;;;;9.33;52.73;93729.22;5019614;28;19921;-67
2023/10/25 10:34:41;;;;;;;;;;;;;;;9.25;52.90;93738.25;5023199;28;20544;-68
2023/10/25 10:37:13;;;;;;;;;;;;;;;9.39;52.92;93741.59;5020009;28;19933;-67
2023/10/25 10:39:58;;;;;;;;;;;;;;;9.37;53.22;93727.75;5019933;28;20352;-67
2023/10/25 10:42:30;;;;;;;;;;;;;;;9.37;52.70;93727.75;5019506;28;20012;-68
2023/10/25 10:44:58;;;;;;;;;;;;;;;9.52;52.79;93716.78;5020316;28;19991;-67
2023/10/25 10:47:37;;;;;;;;;;;;;;;9.29;53.47;93712.88;5019990;28;20043;-67
2023/10/25 10:50:10;;;;;;;;;;;;;;;9.62;52.56;93710.16;5009113;28;19970;-67
2023/10/25 10:52:36;;;;;;;;;;;;;;;9.67;51.80;93691.72;5006073;28;19925;-68
2023/10/25 10:55:01;;;;;;;;;;;;;;;9.57;52.34;93697.53;5004678;28;20301;-68
2023/10/25 10:57:26;;;;;;;;;;;;;;;9.67;51.69;93695.19;4997175;28;20634;-67
2023/10/25 10:59:52;;;;;;;;;;;;;;;9.55;52.77;93689.78;4999948;28;20448;-68
2023/10/25 11:02:17;;;;;;;;;;;;;;;9.30;53.38;93687.97;4998512;28;19984;-67
2023/10/25 11:04:42;;;;;;;;;;;;;;;9.19;52.93;93678.06;5000125;28;19917;-68
2023/10/25 11:07:07;;;;;;;;;;;;;;;9.00;54.81;93672.69;4997632;28;20046;-67
2023/10/25 11:09:33;;;;;;;;;;;;;;;9.00;54.41;93669.19;4998905;28;19940;-68
2023/10/25 11:12:08;;;;;;;;;;;;;;;8.98;53.47;93664.13;4999752;28;20024;-68
2023/10/25 11:14:40;;;;;;;;;;;;;;;9.04;54.07;93657.94;5000293;28;19921;-68
2023/10/25 11:17:05;;;;;;;;;;;;;;;9.09;54.25;93644.03;5000892;28;19937;-67
2023/10/25 11:19:31;;;;;;;;;;;;;;;9.05;52.95;93645.50;4998866;28;19925;-67
2023/10/25 11:21:56;;;;;;;;;;;;;;;8.81;55.47;93635.41;5036508;28;19920;-67
2023/10/25 11:24:22;;;;;;;;;;;;;;;8.69;54.59;93639.78;5038098;28;19931;-68
2023/10/25 11:26:47;;;;;;;;;;;;;;;8.89;54.83;93634.34;5038898;28;20050;-67
2023/10/25 11:29:12;;;;;;;;;;;;;;;8.77;55.46;93628.13;5039226;28;19924;-68
2023/10/25 11:31:40;;;;;;;;;;;;;;;8.82;54.72;93610.53;5038018;28;19943;-68
2023/10/25 11:34:05;;;;;;;;;;;;;;;8.86;54.13;93602.13;5040278;28;19917;-68
2023/10/25 11:36:31;;;;;;;;;;;;;;;8.85;54.45;93596.00;5041655;28;20007;-68
2023/10/25 11:39:06;;;;;;;;;;;;;;;8.62;56.09;93594.75;5038687;28;19920;-68
2023/10/25 11:41:32;;;;;;;;;;;;;;;8.65;55.01;93598.81;5035517;28;19925;-68
2023/10/25 11:43:57;;;;;;;;;;;;;;;8.78;54.77;93590.75;5036493;28;20038;-68
2023/10/25 11:46:24;;;;;;;;;;;;;;;8.66;56.34;93587.16;5039322;28;19921;-67
2023/10/25 11:48:49;;;;;;;;;;;;;;;8.84;54.39;93570.50;5038836;28;19966;-68
2023/10/25 11:51:16;;;;;;;;;;;;;;;8.79;54.60;93570.34;5039525;28;20015;-68
2023/10/25 11:53:42;;;;;;;;;;;;;;;8.91;55.39;93573.09;5037473;28;20048;-68
2023/10/25 11:56:07;;;;;;;;;;;;;;;8.94;54.58;93562.03;5037337;28;20512;-68
2023/10/25 11:58:33;;;;;;;;;;;;;;;9.22;53.67;93547.53;5037256;28;20553;-68
2023/10/25 12:01:04;;;;;;;;;;;;;;;9.08;52.89;93563.56;5038475;28;19921;-68
2023/10/25 12:03:29;;;;;;;;;;;;;;;9.06;53.13;93539.09;5037997;28;20295;-67
2023/10/25 12:05:54;;;;;;;;;;;;;;;8.84;54.72;93553.78;5038887;28;19931;-70
2023/10/25 12:08:19;;;;;;;;;;;;;;;9.01;54.36;93544.25;5038224;28;20473;-69
2023/10/25 12:10:45;;;;;;;;;;;;;;;9.19;53.56;93542.66;5038579;28;20049;-70
2023/10/25 12:13:10;;;;;;;;;;;;;;;9.30;53.77;93531.31;5039024;28;19967;-69
2023/10/25 12:15:35;;;;;;;;;;;;;;;9.36;53.35;93521.63;5042755;28;19954;-69
2023/10/25 12:18:00;;;;;;;;;;;;;;;9.23;53.23;93516.47;5038472;28;20400;-69
2023/10/25 12:20:26;;;;;;;;;;;;;;;9.15;54.17;93522.88;5042427;28;19948;-70
2023/10/25 12:22:51;;;;;;;;;;;;;;;9.26;53.60;93511.53;5041068;28;19925;-70
2023/10/25 12:25:16;;;;;;;;;;;;;;;9.39;52.83;93512.41;5042865;28;19975;-69
2023/10/25 12:27:42;;;;;;;;;;;;;;;9.16;53.82;93516.53;5042009;28;20409;-70
2023/10/25 12:30:08;;;;;;;;;;;;;;;9.37;53.30;93499.34;5042991;28;19986;-70
2023/10/25 12:32:33;;;;;;;;;;;;;;;9.37;53.33;93496.69;5041609;28;19925;-70
2023/10/25 12:34:58;;;;;;;;;;;;;;;9.04;54.25;93498.69;5043670;28;20060;-69
2023/10/25 12:37:25;;;;;;;;;;;;;;;9.27;53.20;93494.56;5041792;28;19921;-69
2023/10/25 12:39:50;;;;;;;;;;;;;;;8.88;53.79;93489.41;5042578;28;19960;-71
2023/10/25 12:42:16;;;;;;;;;;;;;;;9.29;53.62;93483.72;5042448;28;20442;-69
2023/10/25 12:44:41;;;;;;;;;;;;;;;9.02;54.47;93476.06;5041200;28;19921;-69
2023/10/25 12:47:06;;;;;;;;;;;;;;;8.83;54.94;93494.56;5042439;28;19920;-69
2023/10/25 12:49:32;;;;;;;;;;;;;;;8.85;54.55;93467.81;5040933;28;19925;-70
2023/10/25 12:51:57;;;;;;;;;;;;;;;9.24;54.26;93476.41;5041278;28;19920;-69